createdAt,value
2022-11-22T00:00:32.456Z,3.77
2022-11-22T00:02:59.873Z,3.84
2022-11-22T00:05:30.675Z,3.84
2022-11-22T00:07:58.212Z,3.95
2022-11-22T00:10:25.854Z,4.10
2022-11-22T00:12:53.376Z,4.06
2022-11-22T00:15:20.804Z,4.13
2022-11-22T00:17:48.233Z,4.05
2022-11-22T00:20:15.666Z,4.13
2022-11-22T00:22:45.235Z,4.16
2022-11-22T00:25:13.379Z,4.18
2022-11-22T00:27:41.420Z,4.13
2022-11-22T00:30:09.539Z,4.13
2022-11-22T00:32:37.048Z,4.12
2022-11-22T00:35:04.819Z,4.11
2022-11-22T00:37:32.529Z,4.03
2022-11-22T00:40:02.199Z,3.89
2022-11-22T00:42:29.640Z,3.85
2022-11-22T00:44:57.180Z,3.62
2022-11-22T00:47:24.641Z,3.40
2022-11-22T00:49:52.096Z,3.60
2022-11-22T00:52:19.527Z,3.77
2022-11-22T00:54:53.031Z,3.63
2022-11-22T00:57:23.519Z,3.77
2022-11-22T00:59:50.918Z,3.72
2022-11-22T01:02:18.629Z,3.84
2022-11-22T01:04:46.154Z,3.97
2022-11-22T01:07:13.805Z,4.10
2022-11-22T01:09:41.354Z,4.06
2022-11-22T01:12:09.123Z,4.18
2022-11-22T01:14:37.910Z,4.14
2022-11-22T01:17:05.323Z,4.18
2022-11-22T01:19:33.057Z,4.20
2022-11-22T01:22:00.639Z,4.16
2022-11-22T01:24:28.467Z,4.19
2022-11-22T01:26:56.706Z,4.22
2022-11-22T01:29:24.153Z,4.24
2022-11-22T01:31:52.913Z,4.27
2022-11-22T01:34:20.335Z,3.86
2022-11-22T01:36:48.031Z,3.84
2022-11-22T01:39:15.633Z,3.89
2022-11-22T01:41:43.147Z,3.75
2022-11-22T01:44:24.183Z,3.92
2022-11-22T01:46:55.282Z,3.93
2022-11-22T01:49:29.063Z,4.08
2022-11-22T01:52:00.343Z,4.24
2022-11-22T01:54:30.862Z,4.35
2022-11-22T01:57:03.278Z,4.40
2022-11-22T01:59:32.183Z,4.45
2022-11-22T02:02:01.922Z,4.44
2022-11-22T02:04:30.750Z,4.39
2022-11-22T02:07:02.646Z,4.47
2022-11-22T02:09:31.119Z,4.45
2022-11-22T02:12:02.415Z,4.44
2022-11-22T02:14:30.591Z,4.52
2022-11-22T02:16:58.137Z,4.49
2022-11-22T02:19:35.135Z,4.49
2022-11-22T02:22:05.641Z,4.48
2022-11-22T02:24:37.495Z,4.52
2022-11-22T02:27:06.267Z,4.44
2022-11-22T02:29:34.282Z,4.50
2022-11-22T02:32:01.721Z,4.47
2022-11-22T02:34:29.131Z,4.54
2022-11-22T02:36:56.599Z,4.50
2022-11-22T02:39:26.950Z,4.50
2022-11-22T02:41:55.232Z,4.53
2022-11-22T02:44:24.390Z,4.59
2022-11-22T02:46:53.756Z,4.63
2022-11-22T02:49:22.652Z,4.62
2022-11-22T02:51:50.306Z,4.72
2022-11-22T02:54:18.168Z,4.62
2022-11-22T02:56:45.603Z,4.60
2022-11-22T02:59:13.023Z,4.66
2022-11-22T03:01:41.968Z,4.65
2022-11-22T03:04:09.449Z,4.67
2022-11-22T03:06:37.043Z,4.74
2022-11-22T03:09:04.500Z,4.68
2022-11-22T03:11:31.927Z,4.74
2022-11-22T03:13:59.379Z,4.74
2022-11-22T03:16:26.839Z,4.70
2022-11-22T03:18:55.599Z,4.64
2022-11-22T03:21:23.057Z,4.65
2022-11-22T03:23:50.472Z,4.78
2022-11-22T03:26:17.936Z,4.81
2022-11-22T03:28:45.403Z,4.71
2022-11-22T03:31:12.872Z,4.80
2022-11-22T03:33:40.306Z,4.85
2022-11-22T03:36:09.165Z,4.85
2022-11-22T03:38:36.954Z,4.73
2022-11-22T03:41:04.530Z,4.78
2022-11-22T03:43:32.055Z,4.81
2022-11-22T03:45:59.485Z,4.69
2022-11-22T03:48:26.912Z,4.72
2022-11-22T03:50:54.374Z,4.71
2022-11-22T03:53:23.631Z,4.76
2022-11-22T03:55:51.024Z,4.69
2022-11-22T03:58:18.493Z,4.61
2022-11-22T04:00:45.918Z,4.68
2022-11-22T04:03:13.360Z,4.66
2022-11-22T04:05:40.862Z,4.76
2022-11-22T04:08:08.272Z,4.67
2022-11-22T04:10:37.238Z,4.62
2022-11-22T04:13:04.675Z,4.60
2022-11-22T04:15:31.130Z,4.62
2022-11-22T04:17:58.525Z,4.73
2022-11-22T04:20:45.138Z,4.70
2022-11-22T04:23:14.046Z,4.66
2022-11-22T04:25:43.191Z,4.69
2022-11-22T04:28:12.181Z,4.79
2022-11-22T04:30:57.358Z,4.75
2022-11-22T04:33:25.526Z,4.80
2022-11-22T04:35:53.622Z,4.80
2022-11-22T04:38:21.937Z,4.81
2022-11-22T04:40:50.768Z,4.80
2022-11-22T04:43:38.678Z,4.88
2022-11-22T04:46:06.295Z,4.75
2022-11-22T04:48:33.824Z,4.75
2022-11-22T04:51:19.232Z,4.74
2022-11-22T04:53:46.856Z,4.82
2022-11-22T04:56:15.699Z,4.89
2022-11-22T04:58:43.474Z,4.96
2022-11-22T05:01:11.323Z,4.93
2022-11-22T05:03:38.923Z,5.00
2022-11-22T05:06:06.788Z,5.01
2022-11-22T05:08:35.272Z,4.99
2022-11-22T05:11:02.716Z,5.04
2022-11-22T05:13:33.674Z,5.02
2022-11-22T05:16:02.073Z,5.09
2022-11-22T05:18:30.428Z,5.01
2022-11-22T05:20:57.926Z,5.00
2022-11-22T05:23:43.102Z,5.12
2022-11-22T05:26:11.708Z,5.35
2022-11-22T05:28:40.523Z,5.11
2022-11-22T05:31:09.706Z,5.02
2022-11-22T05:33:38.498Z,5.03
2022-11-22T05:36:06.758Z,5.22
2022-11-22T05:38:35.384Z,5.21
2022-11-22T05:41:03.592Z,5.21
2022-11-22T05:43:31.375Z,5.18
2022-11-22T05:46:07.320Z,5.18
2022-11-22T05:48:34.761Z,5.26
2022-11-22T05:51:05.298Z,5.25
2022-11-22T05:53:32.780Z,5.37
2022-11-22T05:56:04.990Z,5.32
2022-11-22T05:58:32.434Z,5.38
2022-11-22T06:01:05.937Z,5.44
2022-11-22T06:03:33.860Z,5.43
2022-11-22T06:06:01.366Z,5.48
2022-11-22T06:08:29.974Z,5.49
2022-11-22T06:10:59.164Z,5.67
2022-11-22T06:13:26.959Z,5.73
2022-11-22T06:15:54.364Z,5.75
2022-11-22T06:18:23.148Z,5.83
2022-11-22T06:20:50.548Z,5.94
2022-11-22T06:23:20.748Z,5.88
2022-11-22T06:25:48.208Z,5.92
2022-11-22T06:28:15.671Z,5.90
2022-11-22T06:30:43.056Z,6.04
2022-11-22T06:33:10.503Z,6.01
2022-11-22T06:35:39.236Z,6.20
2022-11-22T06:38:06.704Z,6.31
2022-11-22T06:40:34.145Z,6.18
2022-11-22T06:43:01.543Z,6.14
2022-11-22T06:45:29.103Z,6.19
2022-11-22T06:47:58.988Z,6.15
2022-11-22T06:50:29.319Z,6.02
2022-11-22T06:52:58.059Z,6.15
2022-11-22T06:55:48.975Z,5.92
2022-11-22T06:58:12.987Z,6.20
2022-11-22T07:00:40.476Z,6.10
2022-11-22T07:03:07.931Z,6.02
2022-11-22T07:05:35.346Z,5.87
2022-11-22T07:08:10.416Z,5.71
2022-11-22T07:10:40.887Z,5.50
2022-11-22T07:13:08.302Z,5.72
2022-11-22T07:15:35.823Z,5.80
2022-11-22T07:18:03.252Z,5.77
2022-11-22T07:20:30.783Z,5.76
2022-11-22T07:22:58.212Z,5.73
2022-11-22T07:25:26.963Z,5.88
2022-11-22T07:27:54.395Z,5.95
2022-11-22T07:30:21.817Z,6.08
2022-11-22T07:32:49.723Z,6.05
2022-11-22T07:35:17.341Z,6.00
2022-11-22T07:37:44.750Z,6.12
2022-11-22T07:40:13.169Z,6.04
2022-11-22T07:42:41.960Z,6.04
2022-11-22T07:45:12.068Z,5.96
2022-11-22T07:47:39.479Z,6.12
2022-11-22T07:50:09.975Z,5.96
2022-11-22T07:52:37.895Z,5.89
2022-11-22T07:55:10.984Z,5.87
2022-11-22T07:57:43.205Z,5.86
2022-11-22T08:00:12.456Z,5.91
2022-11-22T08:02:39.931Z,6.04
2022-11-22T08:05:08.263Z,6.09
2022-11-22T08:07:35.750Z,6.26
2022-11-22T08:10:03.284Z,6.19
2022-11-22T08:12:30.735Z,6.22
2022-11-22T08:14:59.520Z,6.24
2022-11-22T08:17:27.056Z,6.45
2022-11-22T08:19:54.499Z,6.54
2022-11-22T08:22:21.936Z,6.61
2022-11-22T08:24:49.386Z,6.53
2022-11-22T08:27:16.874Z,6.73
2022-11-22T08:29:44.321Z,6.77
2022-11-22T08:32:13.366Z,6.95
2022-11-22T08:34:46.932Z,6.83
2022-11-22T08:37:14.818Z,7.04
2022-11-22T08:39:42.210Z,6.97
2022-11-22T08:42:09.763Z,7.07
2022-11-22T08:44:37.168Z,7.03
2022-11-22T08:47:04.575Z,7.25
2022-11-22T08:49:33.721Z,7.37
2022-11-22T08:52:01.251Z,7.44
2022-11-22T08:54:30.596Z,7.54
2022-11-22T08:57:01.023Z,7.58
2022-11-22T08:59:28.965Z,7.72
2022-11-22T09:01:56.735Z,7.65
2022-11-22T09:04:24.220Z,7.69
2022-11-22T09:09:40.531Z,7.64
2022-11-22T09:12:08.617Z,7.73
2022-11-22T09:14:36.160Z,7.80
2022-11-22T09:17:05.900Z,7.84
2022-11-22T09:19:33.577Z,7.64
2022-11-22T09:22:02.487Z,7.91
2022-11-22T09:24:29.883Z,8.14
2022-11-22T09:26:57.327Z,8.19
2022-11-22T09:29:25.292Z,8.20
2022-11-22T09:31:52.836Z,8.28
2022-11-22T09:34:20.371Z,8.14
2022-11-22T09:36:47.794Z,8.17
2022-11-22T09:39:16.554Z,8.20
2022-11-22T09:42:05.871Z,8.34
2022-11-22T09:44:42.687Z,8.28
2022-11-22T09:47:18.236Z,8.36
2022-11-22T09:49:52.395Z,8.34
2022-11-22T09:52:24.384Z,8.59
2022-11-22T09:54:57.027Z,8.79
2022-11-22T09:57:26.530Z,8.50
2022-11-22T10:00:02.011Z,8.16
2022-11-22T10:02:59.462Z,8.35
2022-11-22T10:05:33.369Z,8.45
2022-11-22T10:08:03.147Z,8.54
2022-11-22T10:10:36.217Z,8.26
2022-11-22T10:13:09.283Z,8.37
2022-11-22T10:15:40.417Z,8.55
2022-11-22T10:18:12.574Z,8.67
2022-11-22T10:20:47.313Z,8.72
2022-11-22T10:23:18.187Z,8.99
2022-11-22T10:25:49.083Z,8.91
2022-11-22T10:28:19.006Z,8.98
2022-11-22T10:30:53.375Z,9.28
2022-11-22T10:33:25.575Z,9.40
2022-11-22T10:36:05.810Z,9.25
2022-11-22T10:38:43.931Z,9.39
2022-11-22T10:41:21.466Z,9.59
2022-11-22T10:43:54.690Z,9.44
2022-11-22T10:46:26.919Z,9.48
2022-11-22T10:48:59.782Z,9.41
2022-11-22T10:51:33.641Z,9.69
2022-11-22T10:54:13.587Z,10.03
2022-11-22T10:56:50.491Z,10.06
2022-11-22T10:59:31.906Z,9.82
2022-11-22T11:02:04.703Z,9.23
2022-11-22T11:04:34.065Z,9.42
2022-11-22T11:07:17.194Z,9.71
2022-11-22T11:12:41.393Z,9.57
2022-11-22T11:15:19.032Z,9.97
2022-11-22T11:17:49.120Z,10.07
2022-11-22T11:20:22.623Z,9.93
2022-11-22T11:25:40.271Z,10.20
2022-11-22T11:28:11.161Z,9.98
2022-11-22T11:30:40.567Z,10.08
2022-11-22T11:33:18.505Z,10.05
2022-11-22T11:35:46.308Z,10.37
2022-11-22T11:38:27.733Z,10.42
2022-11-22T11:40:55.098Z,9.98
2022-11-22T11:43:24.679Z,9.96
2022-11-22T11:45:52.037Z,10.05
2022-11-22T11:48:29.046Z,10.13
2022-11-22T11:51:09.291Z,10.14
2022-11-22T11:53:36.676Z,10.30
2022-11-22T11:56:20.259Z,10.23
2022-11-22T11:58:52.074Z,9.91
2022-11-22T12:01:19.746Z,9.99
2022-11-22T12:03:51.595Z,9.90
2022-11-22T12:06:18.924Z,9.72
2022-11-22T12:08:49.452Z,9.70
2022-11-22T12:11:17.587Z,9.54
2022-11-22T12:14:12.277Z,9.63
2022-11-22T12:16:35.116Z,9.50
2022-11-22T12:19:05.386Z,9.54
2022-11-22T12:21:34.507Z,9.32
2022-11-22T12:24:34.381Z,9.42
2022-11-22T12:26:50.012Z,9.25
2022-11-22T12:29:17.334Z,9.37
2022-11-22T12:31:46.602Z,9.24
2022-11-22T12:34:15.345Z,9.25
2022-11-22T12:36:43.146Z,9.39
2022-11-22T12:39:12.500Z,9.28
2022-11-22T12:41:40.175Z,9.16
2022-11-22T12:44:08.174Z,9.19
2022-11-22T12:46:39.743Z,9.09
2022-11-22T12:49:12.095Z,9.25
2022-11-22T12:51:41.159Z,9.40
2022-11-22T12:54:10.172Z,9.39
2022-11-22T12:56:37.809Z,9.07
2022-11-22T12:59:07.314Z,9.19
2022-11-22T13:01:36.036Z,8.72
2022-11-22T13:04:04.963Z,8.89
2022-11-22T13:06:35.490Z,9.00
2022-11-22T13:09:04.272Z,8.88
2022-11-22T13:11:32.227Z,8.72
2022-11-22T13:14:01.254Z,8.95
2022-11-22T13:16:28.722Z,9.08
2022-11-22T13:18:56.595Z,9.01
2022-11-22T13:21:25.686Z,9.11
2022-11-22T13:23:57.052Z,9.07
2022-11-22T13:26:27.460Z,9.15
2022-11-22T13:28:54.727Z,9.29
2022-11-22T13:31:22.045Z,9.23
2022-11-22T13:33:53.432Z,9.54
2022-11-22T13:36:24.636Z,9.43
2022-11-22T13:38:52.392Z,9.55
2022-11-22T13:41:26.706Z,9.09
2022-11-22T13:43:55.243Z,8.98
2022-11-22T13:46:42.423Z,9.28
2022-11-22T13:49:14.346Z,9.10
2022-11-22T13:51:54.434Z,9.27
2022-11-22T13:54:42.481Z,9.31
2022-11-22T13:57:26.742Z,9.12
2022-11-22T14:00:12.524Z,9.14
2022-11-22T14:02:39.976Z,8.93
2022-11-22T14:05:17.160Z,8.73
2022-11-22T14:07:44.552Z,8.96
2022-11-22T14:10:25.153Z,8.76
2022-11-22T14:13:16.283Z,8.72
2022-11-22T14:15:54.149Z,8.63
2022-11-22T14:18:26.624Z,8.64
2022-11-22T14:20:57.007Z,8.31
2022-11-22T14:23:31.525Z,8.46
2022-11-22T14:26:11.398Z,8.55
2022-11-22T14:29:03.051Z,8.42
2022-11-22T14:31:33.613Z,8.34
2022-11-22T14:34:20.146Z,8.30
2022-11-22T14:37:26.208Z,8.36
2022-11-22T14:40:11.012Z,8.35
2022-11-22T14:42:50.110Z,8.48
2022-11-22T14:45:23.292Z,8.40
2022-11-22T14:48:00.677Z,8.37
2022-11-22T14:50:31.332Z,8.27
2022-11-22T14:53:00.579Z,8.11
2022-11-22T14:55:31.782Z,8.04
2022-11-22T14:58:01.955Z,7.89
2022-11-22T15:00:39.184Z,8.00
2022-11-22T15:03:27.052Z,7.93
2022-11-22T15:09:10.824Z,7.88
2022-11-22T15:09:14.158Z,8.02
2022-11-22T15:11:55.999Z,8.05
2022-11-22T15:14:51.659Z,7.97
2022-11-22T15:57:31.997Z,7.64
2022-11-22T16:00:00.209Z,7.56
2022-11-22T16:02:29.860Z,7.55
2022-11-22T16:06:08.429Z,7.57
2022-11-22T16:07:48.312Z,7.51
2022-11-22T16:10:21.178Z,7.57
2022-11-22T16:12:49.006Z,7.45
2022-11-22T16:15:26.700Z,7.45
2022-11-22T16:17:59.490Z,7.41
2022-11-22T16:20:33.563Z,7.48
2022-11-22T16:23:06.027Z,7.41
2022-11-22T16:25:35.779Z,7.42
2022-11-22T16:28:07.483Z,7.44
2022-11-22T16:30:42.727Z,7.27
2022-11-22T16:33:10.788Z,7.12
2022-11-22T16:35:38.268Z,7.21
2022-11-22T16:38:06.999Z,7.10
2022-11-22T16:40:38.852Z,6.84
2022-11-22T16:43:14.679Z,6.80
2022-11-22T16:45:42.119Z,6.73
2022-11-22T16:48:30.903Z,6.61
2022-11-22T16:51:00.681Z,6.54
2022-11-22T16:53:34.810Z,6.46
2022-11-22T16:56:03.571Z,6.38
2022-11-22T16:58:31.146Z,6.38
2022-11-22T17:00:58.775Z,6.38
2022-11-22T17:03:29.543Z,6.41
2022-11-22T17:05:56.964Z,6.31
2022-11-22T17:08:24.510Z,6.41
2022-11-22T17:10:53.182Z,6.40
2022-11-22T17:13:25.262Z,6.45
2022-11-22T17:15:53.136Z,6.51
2022-11-22T17:18:20.565Z,6.49
2022-11-22T17:20:48.343Z,6.47
2022-11-22T17:23:19.544Z,6.50
2022-11-22T17:25:47.054Z,6.57
2022-11-22T17:28:14.486Z,6.60
2022-11-22T17:30:43.347Z,6.65
2022-11-22T17:33:12.215Z,6.55
2022-11-22T17:35:39.928Z,6.58
2022-11-22T17:38:07.742Z,6.44
2022-11-22T17:40:35.220Z,6.49
2022-11-22T17:43:02.786Z,6.55
2022-11-22T17:45:30.541Z,6.45
2022-11-22T17:47:59.298Z,6.57
2022-11-22T17:50:26.823Z,6.67
2022-11-22T17:52:54.234Z,6.67
2022-11-22T17:55:21.660Z,6.64
2022-11-22T17:57:53.115Z,6.67
2022-11-22T18:00:28.550Z,6.72
2022-11-22T18:03:02.548Z,6.71
2022-11-22T18:05:35.136Z,6.64
2022-11-22T18:08:02.677Z,6.65
2022-11-22T18:10:30.319Z,6.69
2022-11-22T18:13:20.136Z,6.62
2022-11-22T18:15:45.502Z,6.74
2022-11-22T18:18:33.563Z,6.73
2022-11-22T18:21:01.639Z,6.78
2022-11-22T18:23:34.480Z,6.71
2022-11-22T18:29:16.122Z,6.76
2022-11-22T18:31:51.100Z,6.73
2022-11-22T18:34:21.250Z,6.80
2022-11-22T18:37:00.706Z,6.71
2022-11-22T18:39:29.852Z,6.76
2022-11-22T18:41:57.587Z,6.85
2022-11-22T18:44:25.047Z,6.94
2022-11-22T18:46:52.514Z,6.91
2022-11-22T18:49:21.334Z,6.83
2022-11-22T18:51:48.767Z,6.91
2022-11-22T18:54:16.486Z,6.69
2022-11-22T18:56:43.889Z,6.66
2022-11-22T18:59:12.306Z,6.64
2022-11-22T19:01:40.011Z,6.69
2022-11-22T19:04:07.459Z,6.68
2022-11-22T19:06:36.260Z,6.65
2022-11-22T19:09:03.774Z,6.75
2022-11-22T19:11:31.927Z,6.80
2022-11-22T19:13:59.815Z,6.82
2022-11-22T19:16:29.946Z,6.85
2022-11-22T19:18:57.913Z,6.91
2022-11-22T19:21:27.587Z,6.83
2022-11-22T19:23:56.549Z,6.80
2022-11-22T19:26:25.855Z,6.87
2022-11-22T19:28:55.370Z,6.72
2022-11-22T19:31:24.694Z,6.76
2022-11-22T19:33:52.120Z,6.67
2022-11-22T19:36:20.920Z,6.70
2022-11-22T19:38:49.093Z,6.65
2022-11-22T19:41:19.201Z,6.54
2022-11-22T19:43:47.396Z,6.62
2022-11-22T19:46:14.935Z,6.60
2022-11-22T19:48:46.876Z,6.51
2022-11-22T19:51:16.213Z,6.47
2022-11-22T19:53:43.720Z,6.44
2022-11-22T19:56:13.495Z,6.41
2022-11-22T19:58:42.614Z,6.54
2022-11-22T20:01:11.692Z,6.41
2022-11-22T20:03:40.722Z,6.47
2022-11-22T20:06:10.286Z,6.35
2022-11-22T20:08:38.214Z,6.29
2022-11-22T20:11:08.215Z,6.19
2022-11-22T20:13:36.975Z,6.18
2022-11-22T20:16:10.665Z,6.18
2022-11-22T20:18:38.648Z,6.26
2022-11-22T20:21:07.927Z,6.43
2022-11-22T20:23:35.998Z,6.53
2022-11-22T20:26:03.623Z,6.46
2022-11-22T20:28:31.341Z,6.37
2022-11-22T20:31:06.240Z,6.47
2022-11-22T20:33:36.011Z,6.51
2022-11-22T20:36:04.367Z,6.49
2022-11-22T20:38:33.588Z,6.54
2022-11-22T20:41:01.235Z,6.69
2022-11-22T20:43:28.745Z,6.66
2022-11-22T20:46:02.502Z,6.71
2022-11-22T20:48:30.354Z,6.69
2022-11-22T20:50:59.309Z,6.75
2022-11-22T20:53:27.729Z,6.75
2022-11-22T20:55:55.247Z,6.70
2022-11-22T20:58:22.762Z,6.85
2022-11-22T21:00:50.203Z,6.88
2022-11-22T21:03:17.620Z,6.85
2022-11-22T21:05:46.244Z,6.88
2022-11-22T21:08:14.963Z,6.86
2022-11-22T21:10:42.377Z,6.82
2022-11-22T21:13:09.824Z,6.64
2022-11-22T21:15:37.367Z,6.59
2022-11-22T21:18:25.491Z,6.61
2022-11-22T21:20:52.640Z,6.65
2022-11-22T21:23:21.459Z,6.82
2022-11-22T21:25:50.265Z,6.82
2022-11-22T21:28:17.659Z,6.86
2022-11-22T21:30:45.146Z,6.91
2022-11-22T21:33:12.606Z,6.86
2022-11-22T21:35:42.757Z,6.85
2022-11-22T21:38:13.409Z,6.78
2022-11-22T21:40:50.237Z,6.87
2022-11-22T21:43:17.650Z,6.87
2022-11-22T21:45:45.173Z,6.91
2022-11-22T21:48:12.870Z,6.93
2022-11-22T21:50:40.409Z,7.04
2022-11-22T21:53:07.920Z,6.97
2022-11-22T21:55:35.415Z,6.94
2022-11-22T21:58:04.420Z,6.92
2022-11-22T22:00:31.866Z,7.00
2022-11-22T22:02:59.295Z,6.99
2022-11-22T22:05:27.083Z,6.92
2022-11-22T22:07:54.551Z,6.92
2022-11-22T22:10:22.057Z,6.84
2022-11-22T22:12:51.823Z,6.73
2022-11-22T22:15:20.659Z,6.69
2022-11-22T22:17:48.068Z,6.63
2022-11-22T22:20:15.646Z,6.79
2022-11-22T22:22:43.104Z,6.78
2022-11-22T22:25:10.585Z,6.74
2022-11-22T22:27:37.987Z,6.84
2022-11-22T22:30:07.072Z,6.80
2022-11-22T22:32:36.571Z,6.72
2022-11-22T22:35:05.507Z,6.69
2022-11-22T22:37:35.092Z,6.60
2022-11-22T22:40:02.692Z,6.56
2022-11-22T22:42:30.114Z,6.58
2022-11-22T22:44:57.522Z,6.49
2022-11-22T22:47:24.967Z,6.53
2022-11-22T22:49:53.679Z,6.52
2022-11-22T22:52:21.122Z,6.49
2022-11-22T22:54:48.532Z,6.37
2022-11-22T22:57:15.955Z,6.36
2022-11-22T22:59:43.359Z,6.41
2022-11-22T23:02:10.844Z,6.41
2022-11-22T23:04:40.220Z,6.40
2022-11-22T23:07:08.950Z,6.39
2022-11-22T23:09:36.453Z,6.37
2022-11-22T23:12:21.025Z,6.48
2022-11-22T23:14:48.450Z,6.59
2022-11-22T23:17:15.999Z,6.68
2022-11-22T23:19:43.434Z,6.83
2022-11-22T23:22:12.163Z,6.90
2022-11-22T23:24:39.573Z,7.00
2022-11-22T23:27:07.018Z,7.07
2022-11-22T23:29:35.843Z,7.09
2022-11-22T23:32:03.341Z,7.11
2022-11-22T23:34:30.766Z,7.08
2022-11-22T23:36:58.189Z,7.12
2022-11-22T23:39:26.924Z,7.18
2022-11-22T23:41:54.302Z,7.22
2022-11-22T23:44:21.708Z,7.23
2022-11-22T23:46:49.155Z,7.21
2022-11-22T23:49:16.545Z,7.24
2022-11-22T23:51:43.936Z,7.21
2022-11-22T23:54:11.351Z,7.15
2022-11-22T23:56:40.088Z,7.24
2022-11-22T23:59:07.620Z,7.24
